Time;durP1;ratioP1;P1;durP2;ratioP2;P2;SDS_P1;SDS_P2;PMS_P1;PMS_P2;Temp;Humidity;BMP_temperature;BMP_pressure;BME280_temperature;BME280_humidity;BME280_pressure;Samples;Min_cycle;Max_cycle;Signal;HPM_P1;HPM_P2
2020/12/24 00:01:25;;;;;;;0.70;0.70;;;21.40;46.70;;;;;;6268306;28;20025;-66
2020/12/24 00:04:25;;;;;;;0.55;0.55;;;21.40;46.50;;;;;;6268060;28;20116;-65
2020/12/24 00:07:26;;;;;;;0.70;0.70;;;21.40;46.40;;;;;;6255386;28;20026;-65
2020/12/24 00:10:27;;;;;;;0.70;0.70;;;21.30;46.40;;;;;;6251939;28;20526;-66
2020/12/24 00:13:27;;;;;;;0.82;0.70;;;21.30;46.40;;;;;;6268194;28;20395;-66
2020/12/24 00:16:28;;;;;;;0.80;0.70;;;21.30;46.20;;;;;;6268149;28;20048;-64
2020/12/24 00:19:28;;;;;;;1.27;0.90;;;21.30;46.40;;;;;;6266566;28;20048;-65
2020/12/24 00:22:28;;;;;;;1.20;0.88;;;21.30;46.30;;;;;;6243264;28;20032;-66
2020/12/24 00:25:29;;;;;;;0.85;0.85;;;21.30;46.50;;;;;;6243127;28;20021;-66
2020/12/24 00:28:31;;;;;;;0.85;0.63;;;21.30;46.50;;;;;;6245671;28;20029;-66
2020/12/24 00:31:35;;;;;;;0.60;0.60;;;21.30;46.50;;;;;;6243954;28;20025;-65
2020/12/24 00:34:36;;;;;;;0.88;0.73;;;21.30;46.50;;;;;;6243388;28;20040;-66
2020/12/24 00:37:36;;;;;;;0.90;0.60;;;21.30;46.40;;;;;;6242994;28;20021;-63
2020/12/24 00:40:37;;;;;;;1.10;0.80;;;21.30;46.50;;;;;;6250964;28;20071;-65
2020/12/24 00:43:38;;;;;;;1.15;0.70;;;21.30;46.50;;;;;;6249564;28;20029;-65
2020/12/24 00:46:38;;;;;;;1.17;0.73;;;21.30;46.40;;;;;;6242494;28;20025;-66
2020/12/24 00:49:38;;;;;;;0.93;0.88;;;21.40;46.40;;;;;;6242830;28;20029;-65
2020/12/24 00:52:39;;;;;;;1.23;0.75;;;21.40;46.60;;;;;;6265945;28;20059;-66
2020/12/24 00:55:40;;;;;;;1.23;0.80;;;21.30;46.50;;;;;;6267795;28;20115;-65
2020/12/24 00:58:40;;;;;;;0.77;0.63;;;21.30;46.50;;;;;;6267533;28;20472;-66
2020/12/24 01:01:41;;;;;;;0.70;0.60;;;21.30;46.50;;;;;;6253849;28;20021;-65
2020/12/24 01:04:41;;;;;;;0.93;0.70;;;21.30;47.20;;;;;;6256321;28;20387;-65
2020/12/24 01:07:42;;;;;;;1.00;0.77;;;21.30;46.50;;;;;;6247326;28;20037;-66
2020/12/24 01:10:42;;;;;;;0.73;0.63;;;21.30;46.40;;;;;;6247848;28;20041;-65
2020/12/24 01:13:43;;;;;;;1.00;0.70;;;21.30;46.30;;;;;;6270730;28;20065;-66
2020/12/24 01:16:43;;;;;;;0.60;0.60;;;21.30;46.40;;;;;;6271603;28;20029;-66
2020/12/24 01:19:44;;;;;;;0.50;0.50;;;21.30;46.70;;;;;;6253638;28;20037;-65
2020/12/24 01:22:44;;;;;;;0.50;0.47;;;21.30;46.50;;;;;;6251137;28;20033;-65
2020/12/24 01:25:45;;;;;;;1.13;0.60;;;21.30;46.50;;;;;;6242252;28;20029;-65
2020/12/24 01:28:45;;;;;;;0.30;0.30;;;21.30;46.50;;;;;;6248164;28;20048;-66
2020/12/24 01:31:47;;;;;;;0.73;0.60;;;21.30;46.50;;;;;;6251027;28;20025;-65
2020/12/24 01:34:47;;;;;;;0.90;0.60;;;21.30;46.40;;;;;;6265862;28;20466;-66
2020/12/24 01:37:48;;;;;;;1.30;0.70;;;21.30;46.50;;;;;;6267338;28;20029;-65
2020/12/24 01:40:56;;;;;;;0.40;0.40;;;21.30;46.50;;;;;;6257487;28;20025;-64
2020/12/24 01:43:56;;;;;;;0.73;0.68;;;21.30;46.60;;;;;;6242109;28;20029;-66
2020/12/24 01:46:56;;;;;;;0.88;0.63;;;21.30;46.50;;;;;;6242206;28;20064;-65
2020/12/24 01:49:57;;;;;;;0.70;0.50;;;21.30;46.40;;;;;;6255991;28;20440;-66
2020/12/24 01:52:58;;;;;;;0.45;0.45;;;21.20;46.30;;;;;;6266554;28;20029;-66
2020/12/24 01:55:59;;;;;;;0.65;0.50;;;21.30;46.50;;;;;;6268598;28;20025;-66
2020/12/24 01:59:01;;;;;;;0.55;0.50;;;21.30;46.50;;;;;;6247539;28;20022;-66
2020/12/24 02:02:02;;;;;;;0.57;0.50;;;21.30;46.50;;;;;;6252147;28;20020;-66
2020/12/24 02:05:03;;;;;;;0.68;0.65;;;21.30;46.40;;;;;;6271095;28;20013;-66
2020/12/24 02:08:04;;;;;;;0.65;0.60;;;21.20;46.70;;;;;;6272491;28;20511;-65
2020/12/24 02:11:06;;;;;;;0.60;0.50;;;21.20;46.40;;;;;;6271109;28;20040;-66
2020/12/24 02:14:06;;;;;;;0.50;0.50;;;21.20;46.50;;;;;;6248974;28;20022;-65
2020/12/24 02:17:07;;;;;;;0.40;0.40;;;21.20;46.50;;;;;;6249758;28;20232;-66
2020/12/24 02:20:08;;;;;;;0.70;0.43;;;21.20;46.40;;;;;;6269962;28;20033;-66
2020/12/24 02:23:08;;;;;;;0.60;0.60;;;21.20;46.50;;;;;;6257257;28;20025;-65
2020/12/24 02:26:09;;;;;;;0.40;0.40;;;21.20;46.50;;;;;;6245741;28;20756;-66
2020/12/24 02:29:09;;;;;;;0.57;0.40;;;21.20;46.50;;;;;;6253319;28;20423;-66
2020/12/24 02:32:10;;;;;;;0.40;0.40;;;21.20;46.50;;;;;;6267431;28;20057;-65
2020/12/24 02:35:10;;;;;;;0.60;0.50;;;21.20;46.70;;;;;;6246099;28;20040;-66
2020/12/24 02:38:11;;;;;;;0.30;0.30;;;21.20;46.70;;;;;;6245564;28;20480;-65
2020/12/24 02:41:12;;;;;;;0.60;0.50;;;21.20;46.40;;;;;;6245231;28;20421;-66
2020/12/24 02:44:12;;;;;;;0.30;0.30;;;21.20;46.40;;;;;;6263321;28;20021;-66
2020/12/24 02:47:13;;;;;;;0.40;0.40;;;21.20;46.50;;;;;;6268572;28;20025;-65
2020/12/24 02:50:13;;;;;;;0.40;0.40;;;21.20;46.60;;;;;;6269909;28;20166;-66
2020/12/24 02:53:14;;;;;;;0.55;0.50;;;21.20;46.50;;;;;;6267934;28;20531;-66
2020/12/24 02:56:14;;;;;;;0.20;0.20;;;21.20;46.50;;;;;;6269143;28;20047;-66
2020/12/24 02:59:15;;;;;;;0.30;0.30;;;21.20;46.50;;;;;;6270342;28;20028;-65
2020/12/24 03:02:15;;;;;;;0.40;0.40;;;21.20;46.50;;;;;;6269786;28;20483;-65
2020/12/24 03:05:16;;;;;;;0.70;0.50;;;21.20;46.50;;;;;;6270129;28;20029;-66
2020/12/24 03:08:16;;;;;;;0.40;0.40;;;21.20;46.50;;;;;;6267719;28;20024;-64
2020/12/24 03:11:16;;;;;;;0.38;0.38;;;21.20;46.50;;;;;;6269327;28;20068;-64
2020/12/24 03:14:18;;;;;;;0.50;0.40;;;21.20;46.50;;;;;;6254877;28;20029;-64
2020/12/24 03:17:20;;;;;;;0.40;0.40;;;21.20;46.50;;;;;;6245178;28;20458;-64
2020/12/24 03:20:20;;;;;;;0.30;0.30;;;21.20;46.70;;;;;;6244569;28;20021;-64
2020/12/24 03:23:21;;;;;;;0.57;0.57;;;21.20;47.00;;;;;;6248371;28;20391;-64
2020/12/24 03:26:21;;;;;;;0.30;0.30;;;21.20;46.70;;;;;;6269230;28;20562;-64
2020/12/24 03:29:21;;;;;;;1.45;0.50;;;21.20;46.50;;;;;;6258798;28;20387;-64
2020/12/24 03:32:22;;;;;;;0.22;0.22;;;21.20;46.50;;;;;;6242824;28;20464;-64
2020/12/24 03:35:23;;;;;;;0.50;0.38;;;21.20;46.60;;;;;;6278933;28;20024;-64
2020/12/24 03:38:23;;;;;;;0.63;0.50;;;21.20;46.60;;;;;;6268716;28;20025;-64
2020/12/24 03:41:24;;;;;;;0.30;0.30;;;21.20;46.90;;;;;;6268675;28;20040;-64
2020/12/24 03:44:24;;;;;;;0.30;0.30;;;21.20;46.60;;;;;;6259190;28;20025;-65
2020/12/24 03:47:25;;;;;;;0.95;0.50;;;21.20;46.80;;;;;;6243844;28;20033;-64
2020/12/24 03:50:25;;;;;;;0.60;0.47;;;21.10;46.50;;;;;;6243704;28;20036;-64
2020/12/24 03:53:26;;;;;;;0.30;0.30;;;21.10;46.50;;;;;;6243927;28;20480;-64
2020/12/24 03:56:27;;;;;;;0.40;0.40;;;21.10;46.60;;;;;;6268914;28;20025;-64
2020/12/24 03:59:27;;;;;;;0.32;0.32;;;21.10;46.60;;;;;;6268471;28;20420;-64
2020/12/24 04:02:28;;;;;;;0.40;0.30;;;21.10;46.70;;;;;;6268205;28;20033;-65
2020/12/24 04:05:28;;;;;;;0.30;0.30;;;21.10;46.70;;;;;;6252707;28;20061;-65
2020/12/24 04:08:29;;;;;;;0.60;0.50;;;21.10;46.60;;;;;;6244156;28;20033;-65
2020/12/24 04:11:29;;;;;;;0.65;0.50;;;21.10;46.60;;;;;;6243753;28;20163;-64
2020/12/24 04:14:30;;;;;;;0.40;0.40;;;21.10;46.60;;;;;;6247123;28;20033;-64
2020/12/24 04:17:30;;;;;;;0.77;0.40;;;21.10;46.60;;;;;;6268631;28;20029;-64
2020/12/24 04:20:31;;;;;;;0.88;0.60;;;21.10;46.70;;;;;;6245058;28;20042;-64
2020/12/24 04:23:32;;;;;;;0.30;0.30;;;21.10;46.60;;;;;;6243510;28;20022;-64
2020/12/24 04:26:32;;;;;;;0.30;0.30;;;21.10;46.50;;;;;;6262641;28;20033;-64
2020/12/24 04:29:33;;;;;;;0.30;0.30;;;21.10;46.60;;;;;;6256217;28;20032;-65
2020/12/24 04:32:34;;;;;;;0.50;0.40;;;21.10;46.60;;;;;;6249804;28;20387;-64
2020/12/24 04:35:34;;;;;;;0.63;0.50;;;21.10;46.70;;;;;;6258660;28;20033;-64
2020/12/24 04:38:35;;;;;;;0.30;0.30;;;21.10;46.60;;;;;;6243562;28;20084;-64
2020/12/24 04:41:35;;;;;;;0.20;0.20;;;21.10;46.60;;;;;;6242615;28;20030;-64
2020/12/24 04:44:36;;;;;;;0.40;0.40;;;21.10;46.70;;;;;;6266520;28;20104;-64
2020/12/24 04:47:39;;;;;;;0.40;0.40;;;21.10;47.30;;;;;;6267703;28;20526;-64
2020/12/24 04:50:41;;;;;;;0.50;0.30;;;21.10;46.60;;;;;;6267508;28;20032;-64
2020/12/24 04:53:42;;;;;;;0.28;0.28;;;21.10;46.80;;;;;;6267954;28;20037;-64
2020/12/24 04:56:44;;;;;;;0.25;0.25;;;21.10;46.60;;;;;;6250952;28;20026;-64
2020/12/24 04:59:44;;;;;;;0.57;0.30;;;21.10;46.70;;;;;;6243176;28;20032;-64
2020/12/24 05:02:59;;;;;;;0.40;0.40;;;21.10;46.70;;;;;;6241859;28;20029;-64
2020/12/24 05:05:59;;;;;;;0.32;0.30;;;21.10;46.70;;;;;;6252121;28;20480;-64
2020/12/24 05:09:00;;;;;;;0.38;0.38;;;21.10;46.80;;;;;;6267601;28;20033;-64
2020/12/24 05:12:01;;;;;;;0.80;0.40;;;21.10;46.70;;;;;;6248131;28;20036;-64
2020/12/24 05:15:01;;;;;;;0.50;0.40;;;21.10;46.70;;;;;;6261540;28;20025;-64
2020/12/24 05:18:22;;;;;;;0.30;0.30;;;21.10;46.70;;;;;;6267489;28;20036;-64
2020/12/24 05:21:31;;;;;;;0.95;0.50;;;21.10;46.70;;;;;;6266237;28;20024;-64
2020/12/24 05:24:33;;;;;;;0.30;0.28;;;21.10;46.70;;;;;;6254298;28;20017;-64
2020/12/24 05:27:34;;;;;;;0.30;0.30;;;21.10;46.70;;;;;;6262187;28;20043;-64
2020/12/24 05:30:35;;;;;;;0.40;0.30;;;21.10;46.70;;;;;;6248103;28;20108;-64
2020/12/24 05:33:35;;;;;;;0.28;0.25;;;21.10;46.60;;;;;;6246970;28;20546;-65
2020/12/24 05:36:35;;;;;;;0.50;0.30;;;21.10;46.70;;;;;;6257059;28;20087;-64
2020/12/24 05:39:37;;;;;;;0.60;0.40;;;21.00;46.70;;;;;;6271463;28;20309;-64
2020/12/24 05:42:52;;;;;;;0.30;0.30;;;21.00;46.70;;;;;;6253801;28;20088;-64
2020/12/24 05:46:04;;;;;;;0.35;0.30;;;21.00;46.60;;;;;;6252744;28;20488;-64
2020/12/24 05:49:18;;;;;;;0.57;0.40;;;21.00;46.60;;;;;;6271700;28;20074;-64
2020/12/24 05:52:19;;;;;;;0.85;0.40;;;21.00;46.60;;;;;;6270895;28;20555;-64
2020/12/24 05:55:20;;;;;;;0.30;0.30;;;21.00;46.60;;;;;;6271435;28;20035;-64
2020/12/24 05:58:26;;;;;;;1.00;0.50;;;21.00;46.50;;;;;;6248034;28;20385;-64
2020/12/24 06:01:27;;;;;;;0.13;0.13;;;21.00;46.60;;;;;;6246921;28;20025;-64
2020/12/24 06:04:46;;;;;;;0.52;0.30;;;21.00;46.60;;;;;;6246640;28;20026;-64
2020/12/24 06:08:09;;;;;;;0.10;0.10;;;21.10;46.50;;;;;;6253006;28;20068;-64
2020/12/24 06:11:10;;;;;;;0.98;0.40;;;21.20;46.30;;;;;;6245702;28;20151;-64
2020/12/24 06:14:14;;;;;;;0.88;0.40;;;21.30;46.20;;;;;;6246069;28;20036;-64
2020/12/24 06:17:18;;;;;;;1.02;0.40;;;21.40;46.10;;;;;;6246157;28;20034;-64
2020/12/24 06:20:19;;;;;;;1.17;0.40;;;21.40;45.90;;;;;;6246206;28;20348;-64
2020/12/24 06:23:20;;;;;;;0.60;0.40;;;21.50;46.00;;;;;;6245744;28;20025;-65
2020/12/24 06:26:25;;;;;;;0.75;0.30;;;21.50;46.10;;;;;;6246281;28;20425;-65
2020/12/24 06:29:28;;;;;;;1.67;0.40;;;21.50;46.00;;;;;;6258539;28;20396;-65
2020/12/24 06:32:33;;;;;;;0.77;0.30;;;21.60;46.00;;;;;;6245497;28;20025;-64
2020/12/24 06:35:41;;;;;;;0.73;0.50;;;21.60;46.00;;;;;;6246077;28;20024;-64
2020/12/24 06:38:47;;;;;;;1.02;0.50;;;21.60;46.00;;;;;;6261435;28;20484;-64
2020/12/24 06:41:47;;;;;;;1.05;0.52;;;21.60;45.90;;;;;;6270044;28;20387;-64
2020/12/24 06:44:48;;;;;;;0.65;0.28;;;21.60;45.80;;;;;;6268401;28;20021;-64
2020/12/24 06:48:24;;;;;;;1.00;0.32;;;21.70;45.80;;;;;;6262765;28;20108;-64
2020/12/24 06:51:25;;;;;;;1.00;0.40;;;21.70;46.00;;;;;;6244885;28;20032;-64
2020/12/24 06:54:27;;;;;;;0.70;0.40;;;21.70;45.90;;;;;;6245424;28;20061;-65
2020/12/24 06:57:36;;;;;;;1.33;0.50;;;21.70;46.00;;;;;;6248408;28;20222;-65
2020/12/24 07:00:37;;;;;;;0.70;0.50;;;21.70;46.00;;;;;;6255104;28;20132;-65
2020/12/24 07:03:37;;;;;;;1.00;0.28;;;21.70;45.90;;;;;;6248452;28;20041;-65
2020/12/24 07:06:41;;;;;;;0.98;0.30;;;21.70;45.70;;;;;;6246182;28;20033;-65
2020/12/24 07:09:42;;;;;;;1.05;0.32;;;21.80;45.70;;;;;;6247335;28;20104;-65
2020/12/24 07:12:52;;;;;;;1.00;0.40;;;21.70;45.60;;;;;;6245740;28;20045;-65
2020/12/24 07:15:53;;;;;;;0.90;0.28;;;21.80;45.80;;;;;;6246199;28;20029;-65
2020/12/24 07:18:55;;;;;;;0.75;0.38;;;21.70;45.60;;;;;;6246173;28;20041;-64
2020/12/24 07:21:56;;;;;;;0.75;0.40;;;21.80;45.80;;;;;;6246350;28;20066;-65
2020/12/24 07:25:01;;;;;;;1.70;0.60;;;21.80;45.60;;;;;;6246121;28;20037;-65
2020/12/24 07:28:03;;;;;;;1.23;0.50;;;21.80;45.70;;;;;;6249147;28;20099;-65
2020/12/24 07:31:06;;;;;;;0.73;0.40;;;21.70;45.60;;;;;;6245784;28;20611;-65
2020/12/24 07:34:06;;;;;;;2.83;0.80;;;21.80;45.60;;;;;;6246064;28;20014;-64
2020/12/24 07:37:09;;;;;;;0.60;0.32;;;21.80;45.80;;;;;;6246689;28;20439;-64
2020/12/24 07:40:10;;;;;;;0.82;0.40;;;21.80;45.70;;;;;;6265227;28;20055;-64
2020/12/24 07:43:11;;;;;;;0.93;0.40;;;21.80;45.80;;;;;;6272459;28;20084;-65
2020/12/24 07:46:11;;;;;;;2.38;0.30;;;21.80;45.80;;;;;;6270412;28;20380;-64
2020/12/24 07:49:13;;;;;;;0.88;0.45;;;21.80;45.70;;;;;;6270232;28;20142;-64
2020/12/24 07:52:13;;;;;;;24.58;0.80;;;21.70;45.80;;;;;;6246551;28;20025;-64
2020/12/24 07:55:14;;;;;;;12.23;0.75;;;21.70;46.10;;;;;;6242356;28;20033;-65
2020/12/24 07:58:16;;;;;;;9.75;0.65;;;21.80;46.10;;;;;;6247067;28;20022;-67
2020/12/24 08:01:20;;;;;;;12.23;0.80;;;21.80;46.30;;;;;;6256686;28;20025;-70
2020/12/24 08:04:21;;;;;;;6.78;0.60;;;22.00;46.00;;;;;;6255807;28;20493;-68
2020/12/24 08:07:21;;;;;;;1.58;0.40;;;22.00;45.80;;;;;;6243133;28;20025;-68
2020/12/24 08:10:22;;;;;;;1.80;0.25;;;22.10;45.80;;;;;;6250396;28;20119;-66
2020/12/24 08:13:22;;;;;;;3.80;0.50;;;22.10;45.70;;;;;;6260516;28;20047;-68
2020/12/24 08:16:25;;;;;;;3.03;0.50;;;22.10;45.70;;;;;;6248473;28;20025;-69
2020/12/24 08:19:36;;;;;;;2.42;0.57;;;22.10;45.70;;;;;;6252521;28;20542;-66
2020/12/24 08:22:59;;;;;;;2.53;0.40;;;22.10;45.60;;;;;;6237573;28;20416;-66
2020/12/24 08:26:00;;;;;;;0.98;0.40;;;22.10;45.80;;;;;;6246264;28;20026;-66
2020/12/24 08:29:06;;;;;;;2.88;0.40;;;22.10;45.70;;;;;;6248722;28;20035;-67
2020/12/24 08:32:08;;;;;;;1.73;0.52;;;22.20;45.80;;;;;;6244674;28;20499;-64
2020/12/24 08:35:12;;;;;;;1.30;0.40;;;22.10;45.90;;;;;;6254932;28;20510;-65
2020/12/24 08:38:14;;;;;;;1.50;0.57;;;22.20;45.80;;;;;;6243748;28;20036;-65
2020/12/24 08:41:25;;;;;;;5.78;0.60;;;22.30;45.50;;;;;;6242341;28;20026;-65
2020/12/24 08:44:26;;;;;;;2.38;0.77;;;22.30;45.40;;;;;;6241805;28;20025;-64
2020/12/24 08:47:37;;;;;;;2.67;0.43;;;22.30;45.30;;;;;;6244769;28;20037;-64
2020/12/24 08:50:40;;;;;;;0.73;0.40;;;22.30;45.30;;;;;;6237876;28;20057;-65
2020/12/24 08:53:41;;;;;;;2.65;0.50;;;22.30;45.30;;;;;;6246152;28;20032;-66
2020/12/24 08:56:43;;;;;;;0.80;0.40;;;22.40;45.20;;;;;;6247292;28;20021;-66
2020/12/24 08:59:53;;;;;;;3.33;0.40;;;22.40;45.10;;;;;;6241749;28;20231;-69
2020/12/24 09:02:53;;;;;;;2.17;0.70;;;22.50;45.50;;;;;;6237811;28;20530;-65
2020/12/24 09:05:54;;;;;;;7.32;1.50;;;22.60;45.00;;;;;;6246206;28;20031;-65
2020/12/24 09:08:54;;;;;;;5.30;1.38;;;22.60;45.10;;;;;;6256666;28;20036;-67
2020/12/24 09:11:55;;;;;;;3.78;1.33;;;22.80;45.00;;;;;;6246474;28;20033;-67
2020/12/24 09:15:01;;;;;;;13.50;1.60;;;22.80;44.70;;;;;;6248058;28;20021;-72
2020/12/24 09:18:07;;;;;;;16.45;1.88;;;22.80;44.80;;;;;;6261938;28;20025;-67
2020/12/24 09:21:11;;;;;;;5.38;1.52;;;22.80;44.70;;;;;;6266441;28;20045;-67
2020/12/24 09:24:11;;;;;;;7.50;1.95;;;22.80;44.80;;;;;;6262178;28;20118;-64
2020/12/24 09:27:12;;;;;;;6.40;2.13;;;22.90;44.50;;;;;;6267322;28;20025;-71
2020/12/24 09:30:12;;;;;;;8.98;2.40;;;22.80;44.60;;;;;;6262165;28;20515;-66
2020/12/24 09:33:13;;;;;;;9.55;2.35;;;22.80;44.40;;;;;;6265101;28;20032;-70
2020/12/24 09:36:15;;;;;;;8.10;5.28;;;22.90;44.30;;;;;;6266641;28;20028;-66
2020/12/24 09:39:16;;;;;;;7.93;3.97;;;22.90;44.00;;;;;;6264573;28;20030;-68
2020/12/24 09:42:17;;;;;;;8.20;4.43;;;22.80;44.50;;;;;;6264272;28;20480;-67
2020/12/24 09:45:18;;;;;;;8.43;4.18;;;22.90;44.10;;;;;;6261702;28;20017;-66
2020/12/24 09:48:18;;;;;;;6.88;4.22;;;23.10;43.60;;;;;;6256325;28;20023;-68
2020/12/24 09:51:19;;;;;;;7.97;4.40;;;23.10;43.50;;;;;;6261945;28;20039;-69
2020/12/24 09:54:19;;;;;;;6.50;3.88;;;23.00;43.80;;;;;;6268596;28;20153;-69
2020/12/24 09:57:20;;;;;;;7.07;3.88;;;23.00;43.70;;;;;;6265346;28;20017;-65
2020/12/24 10:00:20;;;;;;;7.93;3.70;;;23.00;43.70;;;;;;6253701;28;20147;-67
2020/12/24 10:03:22;;;;;;;8.10;3.35;;;22.90;43.80;;;;;;6264366;28;20021;-65
2020/12/24 10:06:24;;;;;;;7.80;3.40;;;22.90;43.80;;;;;;6258823;28;20955;-65
2020/12/24 10:09:25;;;;;;;6.28;3.10;;;22.90;44.00;;;;;;6254989;28;20037;-65
2020/12/24 10:12:27;;;;;;;6.57;2.90;;;23.00;43.80;;;;;;6256185;28;20049;-68
2020/12/24 10:15:27;;;;;;;8.25;3.00;;;22.90;43.80;;;;;;6262762;28;20025;-66
2020/12/24 10:18:28;;;;;;;5.30;3.00;;;22.80;44.10;;;;;;6264382;28;20040;-66
2020/12/24 10:21:29;;;;;;;5.32;2.50;;;22.90;43.90;;;;;;6258706;28;20037;-66
2020/12/24 10:24:29;;;;;;;5.15;2.53;;;22.90;43.80;;;;;;6263813;28;20071;-67
2020/12/24 10:27:30;;;;;;;4.88;2.58;;;22.90;43.60;;;;;;6262929;28;20068;-68
2020/12/24 10:30:30;;;;;;;6.03;2.70;;;23.00;43.60;;;;;;6256918;28;20068;-68
2020/12/24 10:33:31;;;;;;;3.92;2.30;;;22.80;43.70;;;;;;6257493;28;20040;-71
2020/12/24 10:36:31;;;;;;;20.55;2.78;;;22.90;43.50;;;;;;6259904;28;20040;-66
2020/12/24 10:39:31;;;;;;;10.63;2.30;;;22.80;43.60;;;;;;6257300;28;20545;-66
2020/12/24 10:42:33;;;;;;;4.90;2.38;;;22.60;43.40;;;;;;6255994;28;20104;-67
2020/12/24 10:45:34;;;;;;;4.47;2.20;;;22.60;43.70;;;;;;6255215;28;20021;-65
2020/12/24 10:48:34;;;;;;;6.55;2.17;;;22.70;43.50;;;;;;6257527;28;20438;-66
2020/12/24 10:51:35;;;;;;;4.88;1.80;;;22.80;43.40;;;;;;6255946;28;20028;-68
2020/12/24 10:54:35;;;;;;;6.57;1.73;;;22.80;43.30;;;;;;6258827;28;20041;-68
2020/12/24 10:57:37;;;;;;;7.68;1.92;;;22.80;43.30;;;;;;6257942;28;20053;-67
2020/12/24 11:00:37;;;;;;;5.10;1.98;;;22.80;43.10;;;;;;6252592;28;20404;-68
2020/12/24 11:03:38;;;;;;;4.75;1.77;;;22.90;43.30;;;;;;6259616;28;20017;-70
2020/12/24 11:06:42;;;;;;;3.38;1.48;;;22.80;43.50;;;;;;6259933;28;20051;-64
2020/12/24 11:09:42;;;;;;;6.07;2.22;;;22.80;43.60;;;;;;6261693;28;20056;-66
2020/12/24 11:12:43;;;;;;;4.10;1.60;;;22.80;43.60;;;;;;6259966;28;20041;-68
2020/12/24 11:15:43;;;;;;;4.28;1.70;;;22.90;43.40;;;;;;6252983;28;20037;-68
2020/12/24 11:18:44;;;;;;;3.92;1.90;;;22.70;43.50;;;;;;6249811;28;20029;-68
2020/12/24 11:21:44;;;;;;;3.80;1.85;;;22.60;43.60;;;;;;6261829;28;20026;-68
2020/12/24 11:24:46;;;;;;;4.82;1.45;;;22.60;43.70;;;;;;6248446;28;20121;-68
2020/12/24 11:27:46;;;;;;;3.20;1.65;;;22.60;43.80;;;;;;6246550;28;20034;-68
2020/12/24 11:30:47;;;;;;;2.38;1.33;;;22.60;43.60;;;;;;6266246;28;20037;-68
2020/12/24 11:33:47;;;;;;;2.80;1.40;;;22.70;43.60;;;;;;6243394;28;20038;-67
2020/12/24 11:36:48;;;;;;;1.83;1.17;;;22.70;43.60;;;;;;6249114;28;20029;-67
2020/12/24 11:39:48;;;;;;;3.10;1.40;;;22.70;43.50;;;;;;6254047;28;20028;-67
2020/12/24 11:42:49;;;;;;;4.60;1.40;;;22.70;43.50;;;;;;6256051;28;20021;-67
2020/12/24 11:45:49;;;;;;;2.95;1.13;;;22.80;43.40;;;;;;6244989;28;20082;-67
2020/12/24 11:48:50;;;;;;;3.67;1.20;;;22.70;43.60;;;;;;6249455;28;20112;-67
2020/12/24 11:51:51;;;;;;;9.27;1.88;;;22.60;44.40;;;;;;6253629;28;20057;-65
2020/12/24 11:54:51;;;;;;;2.30;1.15;;;22.60;43.90;;;;;;6258525;28;20376;-65
2020/12/24 11:57:52;;;;;;;4.22;1.10;;;22.70;43.60;;;;;;6244051;28;20453;-68
2020/12/24 12:00:52;;;;;;;3.83;1.20;;;22.70;43.70;;;;;;6241721;28;20022;-65
2020/12/24 12:03:53;;;;;;;5.05;1.15;;;22.60;43.90;;;;;;6242916;28;20025;-66
2020/12/24 12:06:54;;;;;;;2.97;0.95;;;22.70;43.60;;;;;;6246536;28;20044;-69
2020/12/24 12:09:54;;;;;;;9.82;1.10;;;22.60;43.60;;;;;;6243130;28;20103;-64
2020/12/24 12:12:55;;;;;;;2.88;2.00;;;22.80;43.50;;;;;;6249043;28;20057;-67
2020/12/24 12:15:56;;;;;;;9.27;2.95;;;22.80;43.10;;;;;;6245927;28;20040;-66
2020/12/24 12:18:57;;;;;;;5.03;2.00;;;22.80;43.60;;;;;;6240435;28;20025;-68
2020/12/24 12:21:57;;;;;;;5.85;2.33;;;22.70;43.80;;;;;;6266707;28;20029;-69
2020/12/24 12:24:58;;;;;;;3.40;2.38;;;22.80;44.20;;;;;;6247845;28;20059;-69
2020/12/24 12:27:58;;;;;;;4.03;1.80;;;22.80;43.30;;;;;;6247875;28;20034;-70
2020/12/24 12:30:59;;;;;;;5.47;2.00;;;22.80;43.40;;;;;;6248443;28;20037;-67
2020/12/24 12:34:01;;;;;;;3.53;1.75;;;22.70;43.30;;;;;;6256783;28;20052;-68
2020/12/24 12:37:02;;;;;;;2.38;1.60;;;22.70;43.40;;;;;;6246189;28;20029;-71
2020/12/24 12:40:06;;;;;;;2.25;1.35;;;22.80;43.30;;;;;;6247477;28;21140;-65
2020/12/24 12:43:07;;;;;;;3.05;1.88;;;22.80;43.10;;;;;;6244120;28;20029;-67
2020/12/24 12:46:08;;;;;;;5.63;1.30;;;22.70;43.40;;;;;;6242932;28;20038;-68
2020/12/24 12:49:08;;;;;;;3.67;1.40;;;22.80;43.20;;;;;;6243483;28;20524;-69
2020/12/24 12:52:09;;;;;;;4.38;1.60;;;22.70;43.50;;;;;;6246807;28;20049;-71
2020/12/24 12:55:09;;;;;;;4.05;1.40;;;22.70;43.30;;;;;;6247395;28;20083;-64
2020/12/24 12:58:10;;;;;;;4.25;1.80;;;22.80;43.10;;;;;;6244726;28;20025;-67
2020/12/24 13:01:15;;;;;;;2.10;1.60;;;22.90;43.00;;;;;;6257021;28;20025;-68
2020/12/24 13:04:16;;;;;;;2.38;1.30;;;22.80;42.90;;;;;;6251795;28;20055;-69
2020/12/24 13:07:16;;;;;;;2.65;1.63;;;22.80;43.10;;;;;;6242873;28;20025;-69
2020/12/24 13:10:17;;;;;;;1.67;1.20;;;22.80;42.90;;;;;;6241466;28;20041;-69
2020/12/24 13:13:17;;;;;;;1.30;1.10;;;22.70;43.30;;;;;;6241835;28;20026;-68
2020/12/24 13:16:24;;;;;;;1.60;1.20;;;22.60;43.30;;;;;;6251919;28;20022;-67
2020/12/24 13:19:24;;;;;;;1.65;1.20;;;22.60;43.20;;;;;;6251801;28;20493;-68
2020/12/24 13:22:25;;;;;;;3.00;1.10;;;22.70;43.80;;;;;;6249662;28;20032;-69
2020/12/24 13:25:25;;;;;;;1.95;1.20;;;22.70;42.90;;;;;;6242504;28;20465;-70
2020/12/24 13:28:26;;;;;;;1.10;1.00;;;22.60;43.00;;;;;;6250665;28;20528;-69
2020/12/24 13:31:26;;;;;;;4.90;1.30;;;22.60;42.90;;;;;;6239895;28;20581;-67
2020/12/24 13:34:27;;;;;;;2.60;1.40;;;22.70;42.80;;;;;;6250736;28;20385;-69
2020/12/24 13:37:27;;;;;;;15.98;1.67;;;22.70;43.20;;;;;;6252765;28;20052;-67
2020/12/24 13:40:28;;;;;;;6.80;1.30;;;22.60;43.30;;;;;;6242311;28;20045;-70
2020/12/24 13:43:28;;;;;;;5.90;1.13;;;22.60;43.00;;;;;;6240813;28;20030;-67
2020/12/24 13:46:29;;;;;;;10.95;1.10;;;22.70;42.90;;;;;;6246680;28;20032;-67
2020/12/24 13:49:30;;;;;;;5.93;1.30;;;22.60;43.00;;;;;;6248398;28;20025;-68
2020/12/24 13:52:30;;;;;;;4.40;1.25;;;22.60;43.10;;;;;;6255258;28;20104;-64
2020/12/24 13:55:30;;;;;;;3.13;1.05;;;22.50;43.10;;;;;;6260761;28;20029;-70
2020/12/24 13:58:31;;;;;;;8.60;1.10;;;22.50;43.40;;;;;;6251054;28;20017;-73
2020/12/24 14:01:31;;;;;;;5.95;1.40;;;22.40;44.00;;;;;;6267682;28;20484;-71
2020/12/24 14:04:32;;;;;;;12.15;1.52;;;22.40;43.70;;;;;;6266123;28;20665;-71
2020/12/24 14:07:32;;;;;;;4.35;1.05;;;22.40;43.60;;;;;;6245345;28;20546;-66
2020/12/24 14:10:33;;;;;;;2.85;1.00;;;22.40;44.40;;;;;;6245937;28;20500;-66
2020/12/24 14:13:34;;;;;;;9.85;1.10;;;22.30;44.30;;;;;;6248727;28;20029;-64
2020/12/24 14:16:34;;;;;;;11.05;1.10;;;22.20;44.50;;;;;;6259111;28;20033;-66
2020/12/24 14:19:35;;;;;;;21.20;1.90;;;22.20;44.20;;;;;;6246903;28;20461;-65
2020/12/24 14:22:35;;;;;;;9.80;1.83;;;22.20;44.20;;;;;;6245668;28;20029;-70
2020/12/24 14:25:40;;;;;;;34.97;2.55;;;22.20;44.00;;;;;;6249233;28;20057;-65
2020/12/24 14:28:40;;;;;;;10.65;1.63;;;22.20;44.50;;;;;;6255144;28;20020;-64
2020/12/24 14:31:44;;;;;;;16.88;1.85;;;22.20;44.30;;;;;;6244045;28;20039;-68
2020/12/24 14:34:44;;;;;;;63.40;3.30;;;22.20;44.10;;;;;;6246312;28;20026;-65
2020/12/24 14:37:45;;;;;;;43.75;2.42;;;22.20;44.50;;;;;;6250108;28;20030;-65
2020/12/24 14:40:45;;;;;;;20.20;1.98;;;22.20;44.80;;;;;;6247660;28;20534;-63
2020/12/24 14:43:47;;;;;;;28.70;2.60;;;22.20;44.50;;;;;;6245724;28;20104;-67
2020/12/24 14:46:47;;;;;;;22.08;1.80;;;22.20;44.60;;;;;;6249349;28;20033;-66
2020/12/24 14:49:48;;;;;;;17.48;1.60;;;22.20;44.50;;;;;;6245271;28;20391;-66
2020/12/24 14:52:48;;;;;;;32.25;1.60;;;22.20;44.70;;;;;;6244917;28;20033;-67
2020/12/24 14:55:49;;;;;;;48.85;2.88;;;22.10;44.70;;;;;;6250510;28;20520;-66
2020/12/24 14:58:49;;;;;;;22.95;2.50;;;22.10;44.50;;;;;;6256992;28;20426;-64
2020/12/24 15:01:52;;;;;;;21.13;2.10;;;22.00;44.80;;;;;;6257455;28;20017;-67
2020/12/24 15:04:53;;;;;;;25.02;2.22;;;22.10;45.30;;;;;;6260890;28;20025;-67
2020/12/24 15:07:53;;;;;;;10.13;1.55;;;22.00;45.30;;;;;;6266892;28;20026;-66
2020/12/24 15:10:54;;;;;;;17.88;1.50;;;21.90;45.60;;;;;;6246530;28;20054;-68
2020/12/24 15:13:54;;;;;;;14.38;1.98;;;21.90;44.80;;;;;;6256015;28;20047;-67
2020/12/24 15:16:55;;;;;;;9.93;1.63;;;21.90;45.10;;;;;;6271014;28;20384;-68
2020/12/24 15:19:55;;;;;;;16.17;1.40;;;21.90;45.20;;;;;;6270297;28;20400;-65
2020/12/24 15:22:56;;;;;;;13.65;1.27;;;21.80;45.30;;;;;;6270682;28;20462;-68
2020/12/24 15:25:56;;;;;;;10.52;1.10;;;21.80;45.40;;;;;;6258506;28;20571;-68
2020/12/24 15:29:04;;;;;;;5.97;0.85;;;21.70;45.50;;;;;;6252681;28;20025;-67
2020/12/24 15:32:05;;;;;;;5.57;1.30;;;21.80;46.00;;;;;;6270038;28;20079;-66
2020/12/24 15:35:05;;;;;;;6.82;1.00;;;21.70;45.60;;;;;;6252617;28;20025;-68
2020/12/24 15:38:09;;;;;;;7.25;1.20;;;21.70;45.60;;;;;;6245718;28;20439;-67
2020/12/24 15:41:10;;;;;;;10.13;1.17;;;21.70;45.80;;;;;;6245026;28;20017;-67
2020/12/24 15:44:10;;;;;;;6.22;1.13;;;21.70;45.80;;;;;;6254406;28;20127;-67